sensor_id;sensor_type;location;lat;lon;timestamp;temperature;humidity
4002;DHT22;2015;48.670;9.060;2022-09-21T00:02:05;7.20;99.90
4002;DHT22;2015;48.670;9.060;2022-09-21T00:04:37;7.20;99.90
4002;DHT22;2015;48.670;9.060;2022-09-21T00:07:09;7.10;99.90
4002;DHT22;2015;48.670;9.060;2022-09-21T00:09:41;7.10;99.90
4002;DHT22;2015;48.670;9.060;2022-09-21T00:12:13;7.10;99.90
4002;DHT22;2015;48.670;9.060;2022-09-21T00:14:45;7.20;99.90
4002;DHT22;2015;48.670;9.060;2022-09-21T00:17:16;7.20;99.90
4002;DHT22;2015;48.670;9.060;2022-09-21T00:19:48;7.20;99.90
4002;DHT22;2015;48.670;9.060;2022-09-21T00:22:20;7.20;99.90
4002;DHT22;2015;48.670;9.060;2022-09-21T00:24:51;7.20;99.90
4002;DHT22;2015;48.670;9.060;2022-09-21T00:27:23;7.10;99.90
4002;DHT22;2015;48.670;9.060;2022-09-21T00:30:01;7.10;99.90
4002;DHT22;2015;48.670;9.060;2022-09-21T00:32:37;7.00;99.90
4002;DHT22;2015;48.670;9.060;2022-09-21T00:35:10;6.90;99.90
4002;DHT22;2015;48.670;9.060;2022-09-21T00:37:41;6.90;99.90
4002;DHT22;2015;48.670;9.060;2022-09-21T00:40:13;6.80;99.90
4002;DHT22;2015;48.670;9.060;2022-09-21T00:42:45;6.80;99.90
4002;DHT22;2015;48.670;9.060;2022-09-21T00:45:16;6.80;99.90
4002;DHT22;2015;48.670;9.060;2022-09-21T00:47:51;6.70;99.90
4002;DHT22;2015;48.670;9.060;2022-09-21T00:50:23;6.70;99.90
4002;DHT22;2015;48.670;9.060;2022-09-21T00:52:57;6.60;99.90
4002;DHT22;2015;48.670;9.060;2022-09-21T00:55:39;6.60;99.90
4002;DHT22;2015;48.670;9.060;2022-09-21T00:58:19;6.60;99.90
4002;DHT22;2015;48.670;9.060;2022-09-21T01:00:54;6.60;99.90
4002;DHT22;2015;48.670;9.060;2022-09-21T01:03:26;6.60;99.90
4002;DHT22;2015;48.670;9.060;2022-09-21T01:06:00;6.60;99.90
4002;DHT22;2015;48.670;9.060;2022-09-21T01:08:32;6.60;99.90
4002;DHT22;2015;48.670;9.060;2022-09-21T01:17:01;6.60;99.90
4002;DHT22;2015;48.670;9.060;2022-09-21T01:20:33;6.60;99.90
4002;DHT22;2015;48.670;9.060;2022-09-21T01:22:54;6.60;99.90
4002;DHT22;2015;48.670;9.060;2022-09-21T01:31:38;6.60;99.90
4002;DHT22;2015;48.670;9.060;2022-09-21T01:34:41;6.60;99.90
4002;DHT22;2015;48.670;9.060;2022-09-21T01:37:18;6.60;99.90
4002;DHT22;2015;48.670;9.060;2022-09-21T01:39:54;6.60;99.90
4002;DHT22;2015;48.670;9.060;2022-09-21T01:42:28;6.50;99.90
4002;DHT22;2015;48.670;9.060;2022-09-21T01:45:03;6.60;99.90
4002;DHT22;2015;48.670;9.060;2022-09-21T01:47:39;6.50;99.90
4002;DHT22;2015;48.670;9.060;2022-09-21T01:50:12;6.50;99.90
4002;DHT22;2015;48.670;9.060;2022-09-21T01:52:50;6.50;99.90
4002;DHT22;2015;48.670;9.060;2022-09-21T01:55:28;6.40;99.90
4002;DHT22;2015;48.670;9.060;2022-09-21T01:58:08;6.40;99.90
4002;DHT22;2015;48.670;9.060;2022-09-21T02:00:44;6.30;99.90
4002;DHT22;2015;48.670;9.060;2022-09-21T02:06:02;6.30;99.90
4002;DHT22;2015;48.670;9.060;2022-09-21T02:08:35;6.20;99.90
4002;DHT22;2015;48.670;9.060;2022-09-21T02:11:08;6.20;99.90
4002;DHT22;2015;48.670;9.060;2022-09-21T02:13:45;6.30;99.90
4002;DHT22;2015;48.670;9.060;2022-09-21T02:22:04;6.30;99.90
4002;DHT22;2015;48.670;9.060;2022-09-21T02:24:46;6.30;99.90
4002;DHT22;2015;48.670;9.060;2022-09-21T02:27:49;6.30;99.90
4002;DHT22;2015;48.670;9.060;2022-09-21T02:30:25;6.30;99.90
4002;DHT22;2015;48.670;9.060;2022-09-21T02:35:52;6.20;99.90
4002;DHT22;2015;48.670;9.060;2022-09-21T02:38:41;6.20;99.90
4002;DHT22;2015;48.670;9.060;2022-09-21T02:41:32;6.20;99.90
4002;DHT22;2015;48.670;9.060;2022-09-21T02:44:11;6.20;99.90
4002;DHT22;2015;48.670;9.060;2022-09-21T02:46:52;6.20;99.90
4002;DHT22;2015;48.670;9.060;2022-09-21T02:49:32;6.20;99.90
4002;DHT22;2015;48.670;9.060;2022-09-21T02:52:11;6.20;99.90
4002;DHT22;2015;48.670;9.060;2022-09-21T02:54:46;6.20;99.90
4002;DHT22;2015;48.670;9.060;2022-09-21T02:57:21;6.20;99.90
4002;DHT22;2015;48.670;9.060;2022-09-21T02:59:54;6.10;99.90
4002;DHT22;2015;48.670;9.060;2022-09-21T03:02:38;6.10;99.90
4002;DHT22;2015;48.670;9.060;2022-09-21T03:05:12;6.10;99.90
4002;DHT22;2015;48.670;9.060;2022-09-21T03:07:44;6.00;99.90
4002;DHT22;2015;48.670;9.060;2022-09-21T03:10:16;6.00;99.90
4002;DHT22;2015;48.670;9.060;2022-09-21T03:12:49;5.90;99.90
4002;DHT22;2015;48.670;9.060;2022-09-21T03:15:20;5.80;99.90
4002;DHT22;2015;48.670;9.060;2022-09-21T03:17:52;5.80;99.90
4002;DHT22;2015;48.670;9.060;2022-09-21T03:20:24;5.70;99.90
4002;DHT22;2015;48.670;9.060;2022-09-21T03:22:56;5.70;99.90
4002;DHT22;2015;48.670;9.060;2022-09-21T03:25:28;5.70;99.90
4002;DHT22;2015;48.670;9.060;2022-09-21T03:28:00;5.60;99.90
4002;DHT22;2015;48.670;9.060;2022-09-21T03:30:33;5.60;99.90
4002;DHT22;2015;48.670;9.060;2022-09-21T03:33:05;5.50;99.90
4002;DHT22;2015;48.670;9.060;2022-09-21T03:35:37;5.50;99.90
4002;DHT22;2015;48.670;9.060;2022-09-21T03:38:10;5.50;99.90
4002;DHT22;2015;48.670;9.060;2022-09-21T03:40:46;5.40;99.90
4002;DHT22;2015;48.670;9.060;2022-09-21T03:43:18;5.40;99.90
4002;DHT22;2015;48.670;9.060;2022-09-21T03:45:50;5.40;99.90
4002;DHT22;2015;48.670;9.060;2022-09-21T03:48:22;5.40;99.90
4002;DHT22;2015;48.670;9.060;2022-09-21T03:50:53;5.40;99.90
4002;DHT22;2015;48.670;9.060;2022-09-21T03:53:25;5.30;99.90
4002;DHT22;2015;48.670;9.060;2022-09-21T03:55:57;5.30;99.90
4002;DHT22;2015;48.670;9.060;2022-09-21T03:58:29;5.30;99.90
4002;DHT22;2015;48.670;9.060;2022-09-21T04:01:02;5.30;99.90
4002;DHT22;2015;48.670;9.060;2022-09-21T04:03:34;5.30;99.90
4002;DHT22;2015;48.670;9.060;2022-09-21T04:06:10;5.20;99.90
4002;DHT22;2015;48.670;9.060;2022-09-21T04:08:42;5.30;99.90
4002;DHT22;2015;48.670;9.060;2022-09-21T04:11:16;5.30;99.90
4002;DHT22;2015;48.670;9.060;2022-09-21T04:13:49;5.40;99.90
4002;DHT22;2015;48.670;9.060;2022-09-21T04:16:24;5.40;99.90
4002;DHT22;2015;48.670;9.060;2022-09-21T04:18:56;5.50;99.90
4002;DHT22;2015;48.670;9.060;2022-09-21T04:21:28;5.50;99.90
4002;DHT22;2015;48.670;9.060;2022-09-21T04:24:00;5.50;99.90
4002;DHT22;2015;48.670;9.060;2022-09-21T04:26:33;5.50;99.90
4002;DHT22;2015;48.670;9.060;2022-09-21T04:29:05;5.50;99.90
4002;DHT22;2015;48.670;9.060;2022-09-21T04:31:38;5.50;99.90
4002;DHT22;2015;48.670;9.060;2022-09-21T04:34:12;5.50;99.90
4002;DHT22;2015;48.670;9.060;2022-09-21T04:36:44;5.50;99.90
4002;DHT22;2015;48.670;9.060;2022-09-21T04:39:16;5.50;99.90
4002;DHT22;2015;48.670;9.060;2022-09-21T04:41:48;5.60;99.90
4002;DHT22;2015;48.670;9.060;2022-09-21T04:44:19;5.50;99.90
4002;DHT22;2015;48.670;9.060;2022-09-21T04:46:51;5.50;99.90
4002;DHT22;2015;48.670;9.060;2022-09-21T04:49:23;5.40;99.90
4002;DHT22;2015;48.670;9.060;2022-09-21T04:51:55;5.40;99.90
4002;DHT22;2015;48.670;9.060;2022-09-21T04:54:26;5.40;99.90
4002;DHT22;2015;48.670;9.060;2022-09-21T04:56:58;5.30;99.90
4002;DHT22;2015;48.670;9.060;2022-09-21T04:59:30;5.20;99.90
4002;DHT22;2015;48.670;9.060;2022-09-21T05:02:02;5.20;99.90
4002;DHT22;2015;48.670;9.060;2022-09-21T05:04:34;5.20;99.90
4002;DHT22;2015;48.670;9.060;2022-09-21T05:07:05;5.10;99.90
4002;DHT22;2015;48.670;9.060;2022-09-21T05:09:37;5.10;99.90
4002;DHT22;2015;48.670;9.060;2022-09-21T05:12:28;5.10;99.90
4002;DHT22;2015;48.670;9.060;2022-09-21T05:15:00;5.10;99.90
4002;DHT22;2015;48.670;9.060;2022-09-21T05:17:32;5.10;99.90
4002;DHT22;2015;48.670;9.060;2022-09-21T05:20:04;5.10;99.90
4002;DHT22;2015;48.670;9.060;2022-09-21T05:22:36;5.10;99.90
4002;DHT22;2015;48.670;9.060;2022-09-21T05:25:08;5.10;99.90
4002;DHT22;2015;48.670;9.060;2022-09-21T05:27:40;5.10;99.90
4002;DHT22;2015;48.670;9.060;2022-09-21T05:30:13;5.10;99.90
4002;DHT22;2015;48.670;9.060;2022-09-21T05:32:51;5.10;99.90
4002;DHT22;2015;48.670;9.060;2022-09-21T05:38:18;5.10;99.90
4002;DHT22;2015;48.670;9.060;2022-09-21T05:40:49;5.20;99.90
4002;DHT22;2015;48.670;9.060;2022-09-21T05:43:22;5.30;99.90
4002;DHT22;2015;48.670;9.060;2022-09-21T05:46:19;5.40;99.90
4002;DHT22;2015;48.670;9.060;2022-09-21T05:49:00;5.40;99.90
4002;DHT22;2015;48.670;9.060;2022-09-21T05:51:41;5.50;99.90
4002;DHT22;2015;48.670;9.060;2022-09-21T05:56:51;5.60;99.90
4002;DHT22;2015;48.670;9.060;2022-09-21T06:04:55;5.80;99.90
4002;DHT22;2015;48.670;9.060;2022-09-21T06:07:28;5.80;99.90
4002;DHT22;2015;48.670;9.060;2022-09-21T06:09:59;5.90;99.90
4002;DHT22;2015;48.670;9.060;2022-09-21T06:12:31;5.90;99.90
4002;DHT22;2015;48.670;9.060;2022-09-21T06:15:04;6.00;99.90
4002;DHT22;2015;48.670;9.060;2022-09-21T06:17:36;6.10;99.90
4002;DHT22;2015;48.670;9.060;2022-09-21T06:20:08;6.10;99.90
4002;DHT22;2015;48.670;9.060;2022-09-21T06:22:40;6.10;99.90
4002;DHT22;2015;48.670;9.060;2022-09-21T06:25:12;6.20;99.90
4002;DHT22;2015;48.670;9.060;2022-09-21T06:27:44;6.20;99.90
4002;DHT22;2015;48.670;9.060;2022-09-21T06:30:15;6.30;99.90
4002;DHT22;2015;48.670;9.060;2022-09-21T06:32:47;6.40;99.90
4002;DHT22;2015;48.670;9.060;2022-09-21T06:35:19;6.40;99.90
4002;DHT22;2015;48.670;9.060;2022-09-21T06:37:51;6.50;99.90
4002;DHT22;2015;48.670;9.060;2022-09-21T06:40:22;6.50;99.90
4002;DHT22;2015;48.670;9.060;2022-09-21T06:42:58;6.60;99.90
4002;DHT22;2015;48.670;9.060;2022-09-21T06:45:30;6.70;99.90
4002;DHT22;2015;48.670;9.060;2022-09-21T06:48:02;6.80;99.90
4002;DHT22;2015;48.670;9.060;2022-09-21T06:50:34;6.90;99.90
4002;DHT22;2015;48.670;9.060;2022-09-21T06:53:06;7.00;99.90
4002;DHT22;2015;48.670;9.060;2022-09-21T06:55:38;7.10;99.90
4002;DHT22;2015;48.670;9.060;2022-09-21T06:58:10;7.10;99.90
4002;DHT22;2015;48.670;9.060;2022-09-21T07:00:42;7.20;99.90
4002;DHT22;2015;48.670;9.060;2022-09-21T07:03:14;7.20;99.90
4002;DHT22;2015;48.670;9.060;2022-09-21T07:05:46;7.30;99.90
4002;DHT22;2015;48.670;9.060;2022-09-21T07:08:17;7.30;99.90
4002;DHT22;2015;48.670;9.060;2022-09-21T07:11:10;7.30;99.90
4002;DHT22;2015;48.670;9.060;2022-09-21T07:13:42;7.40;99.90
4002;DHT22;2015;48.670;9.060;2022-09-21T07:16:13;7.50;99.90
4002;DHT22;2015;48.670;9.060;2022-09-21T07:18:45;7.60;99.90
4002;DHT22;2015;48.670;9.060;2022-09-21T07:21:17;7.60;99.90
4002;DHT22;2015;48.670;9.060;2022-09-21T07:23:49;7.70;99.90
4002;DHT22;2015;48.670;9.060;2022-09-21T07:26:20;7.80;99.90
4002;DHT22;2015;48.670;9.060;2022-09-21T07:28:54;7.90;99.90
4002;DHT22;2015;48.670;9.060;2022-09-21T07:31:25;8.00;99.90
4002;DHT22;2015;48.670;9.060;2022-09-21T07:33:57;8.10;99.90
4002;DHT22;2015;48.670;9.060;2022-09-21T07:36:29;8.10;99.90
4002;DHT22;2015;48.670;9.060;2022-09-21T07:39:01;8.30;99.90
4002;DHT22;2015;48.670;9.060;2022-09-21T07:41:34;8.40;99.90
4002;DHT22;2015;48.670;9.060;2022-09-21T07:44:06;8.50;99.90
4002;DHT22;2015;48.670;9.060;2022-09-21T07:46:38;8.60;99.90
4002;DHT22;2015;48.670;9.060;2022-09-21T07:49:18;8.80;99.90
4002;DHT22;2015;48.670;9.060;2022-09-21T07:51:50;8.90;99.90
4002;DHT22;2015;48.670;9.060;2022-09-21T07:54:21;9.00;99.90
4002;DHT22;2015;48.670;9.060;2022-09-21T07:56:53;9.00;99.90
4002;DHT22;2015;48.670;9.060;2022-09-21T07:59:44;9.10;99.90
4002;DHT22;2015;48.670;9.060;2022-09-21T08:02:16;9.30;99.90
4002;DHT22;2015;48.670;9.060;2022-09-21T08:04:48;9.40;99.90
4002;DHT22;2015;48.670;9.060;2022-09-21T08:07:20;9.50;99.90
4002;DHT22;2015;48.670;9.060;2022-09-21T08:09:51;9.60;99.90
4002;DHT22;2015;48.670;9.060;2022-09-21T08:12:23;9.80;99.90
4002;DHT22;2015;48.670;9.060;2022-09-21T08:14:55;9.80;99.90
4002;DHT22;2015;48.670;9.060;2022-09-21T08:17:27;9.90;99.90
4002;DHT22;2015;48.670;9.060;2022-09-21T08:19:58;10.00;99.90
4002;DHT22;2015;48.670;9.060;2022-09-21T08:22:30;10.00;99.90
4002;DHT22;2015;48.670;9.060;2022-09-21T08:25:02;10.10;99.90
4002;DHT22;2015;48.670;9.060;2022-09-21T08:27:36;10.20;99.90
4002;DHT22;2015;48.670;9.060;2022-09-21T08:30:08;10.30;99.90
4002;DHT22;2015;48.670;9.060;2022-09-21T08:32:40;10.30;99.90
4002;DHT22;2015;48.670;9.060;2022-09-21T08:35:22;10.50;99.90
4002;DHT22;2015;48.670;9.060;2022-09-21T08:37:54;10.50;99.90
4002;DHT22;2015;48.670;9.060;2022-09-21T08:40:26;10.70;99.90
4002;DHT22;2015;48.670;9.060;2022-09-21T08:43:10;10.80;99.90
4002;DHT22;2015;48.670;9.060;2022-09-21T08:45:44;10.90;99.90
4002;DHT22;2015;48.670;9.060;2022-09-21T08:48:23;11.00;99.90
4002;DHT22;2015;48.670;9.060;2022-09-21T08:51:09;11.20;99.90
4002;DHT22;2015;48.670;9.060;2022-09-21T08:53:47;11.20;99.90
4002;DHT22;2015;48.670;9.060;2022-09-21T08:56:24;11.30;99.90
4002;DHT22;2015;48.670;9.060;2022-09-21T08:59:16;11.40;99.90
4002;DHT22;2015;48.670;9.060;2022-09-21T09:02:02;11.60;99.90
4002;DHT22;2015;48.670;9.060;2022-09-21T09:04:43;11.60;99.90
4002;DHT22;2015;48.670;9.060;2022-09-21T09:07:55;11.70;99.90
4002;DHT22;2015;48.670;9.060;2022-09-21T09:21:26;12.90;99.90
4002;DHT22;2015;48.670;9.060;2022-09-21T09:24:30;14.00;99.90
4002;DHT22;2015;48.670;9.060;2022-09-21T09:27:10;15.00;99.90
4002;DHT22;2015;48.670;9.060;2022-09-21T09:30:04;16.40;99.90
4002;DHT22;2015;48.670;9.060;2022-09-21T09:35:34;18.90;99.90
4002;DHT22;2015;48.670;9.060;2022-09-21T09:41:32;20.80;99.90
4002;DHT22;2015;48.670;9.060;2022-09-21T09:52:24;22.30;97.00
4002;DHT22;2015;48.670;9.060;2022-09-21T09:55:00;22.70;95.80
4002;DHT22;2015;48.670;9.060;2022-09-21T09:57:41;23.20;96.00
4002;DHT22;2015;48.670;9.060;2022-09-21T10:00:15;22.90;95.60
4002;DHT22;2015;48.670;9.060;2022-09-21T10:02:53;22.90;95.00
4002;DHT22;2015;48.670;9.060;2022-09-21T10:05:33;22.70;94.30
4002;DHT22;2015;48.670;9.060;2022-09-21T10:08:28;23.20;92.80
4002;DHT22;2015;48.670;9.060;2022-09-21T10:11:00;23.30;92.40
4002;DHT22;2015;48.670;9.060;2022-09-21T10:13:35;23.80;91.50
4002;DHT22;2015;48.670;9.060;2022-09-21T10:16:21;23.70;93.20
4002;DHT22;2015;48.670;9.060;2022-09-21T10:18:58;23.40;91.70
4002;DHT22;2015;48.670;9.060;2022-09-21T10:21:34;23.90;92.40
4002;DHT22;2015;48.670;9.060;2022-09-21T10:24:22;23.90;90.60
4002;DHT22;2015;48.670;9.060;2022-09-21T10:27:13;23.30;90.70
4002;DHT22;2015;48.670;9.060;2022-09-21T10:29:48;23.10;90.40
4002;DHT22;2015;48.670;9.060;2022-09-21T10:32:24;23.00;90.70
4002;DHT22;2015;48.670;9.060;2022-09-21T10:37:33;23.50;88.90
4002;DHT22;2015;48.670;9.060;2022-09-21T10:40:27;23.80;90.40
4002;DHT22;2015;48.670;9.060;2022-09-21T10:42:59;23.40;88.90
4002;DHT22;2015;48.670;9.060;2022-09-21T10:45:33;22.80;91.80
4002;DHT22;2015;48.670;9.060;2022-09-21T10:48:12;22.60;91.00
4002;DHT22;2015;48.670;9.060;2022-09-21T10:50:48;22.10;90.70
4002;DHT22;2015;48.670;9.060;2022-09-21T10:53:32;21.90;91.90
4002;DHT22;2015;48.670;9.060;2022-09-21T10:56:17;22.30;91.10
4002;DHT22;2015;48.670;9.060;2022-09-21T10:59:20;22.80;90.00
4002;DHT22;2015;48.670;9.060;2022-09-21T11:01:55;21.70;91.00
4002;DHT22;2015;48.670;9.060;2022-09-21T11:04:48;21.50;92.80
4002;DHT22;2015;48.670;9.060;2022-09-21T11:07:28;21.50;92.80
4002;DHT22;2015;48.670;9.060;2022-09-21T11:13:19;22.30;92.50
4002;DHT22;2015;48.670;9.060;2022-09-21T11:15:58;23.50;90.50
4002;DHT22;2015;48.670;9.060;2022-09-21T11:18:58;23.70;91.10
4002;DHT22;2015;48.670;9.060;2022-09-21T11:22:04;23.00;90.90
4002;DHT22;2015;48.670;9.060;2022-09-21T11:30:17;18.40;97.10
4002;DHT22;2015;48.670;9.060;2022-09-21T11:35:51;17.00;99.90
4002;DHT22;2015;48.670;9.060;2022-09-21T11:41:26;16.60;99.90
4002;DHT22;2015;48.670;9.060;2022-09-21T11:44:17;16.60;99.90
4002;DHT22;2015;48.670;9.060;2022-09-21T11:55:15;16.40;99.90
4002;DHT22;2015;48.670;9.060;2022-09-21T11:58:00;16.30;99.90
4002;DHT22;2015;48.670;9.060;2022-09-21T12:00:59;16.20;99.90
4002;DHT22;2015;48.670;9.060;2022-09-21T12:09:33;15.70;99.90
4002;DHT22;2015;48.670;9.060;2022-09-21T12:12:23;15.60;99.90
4002;DHT22;2015;48.670;9.060;2022-09-21T12:15:01;15.50;99.90
4002;DHT22;2015;48.670;9.060;2022-09-21T12:17:42;15.30;99.90
4002;DHT22;2015;48.670;9.060;2022-09-21T12:23:16;15.10;99.90
4002;DHT22;2015;48.670;9.060;2022-09-21T12:25:51;15.00;99.90
4002;DHT22;2015;48.670;9.060;2022-09-21T12:28:33;15.00;99.90
4002;DHT22;2015;48.670;9.060;2022-09-21T12:31:17;15.10;99.90
4002;DHT22;2015;48.670;9.060;2022-09-21T12:33:57;15.30;99.90
4002;DHT22;2015;48.670;9.060;2022-09-21T12:37:09;15.10;99.90
4002;DHT22;2015;48.670;9.060;2022-09-21T12:40:15;15.10;99.90
4002;DHT22;2015;48.670;9.060;2022-09-21T12:43:00;15.20;99.90
4002;DHT22;2015;48.670;9.060;2022-09-21T12:45:50;15.30;99.90
4002;DHT22;2015;48.670;9.060;2022-09-21T12:48:34;15.30;99.90
4002;DHT22;2015;48.670;9.060;2022-09-21T12:51:15;15.50;99.90
4002;DHT22;2015;48.670;9.060;2022-09-21T12:53:51;15.60;99.90
4002;DHT22;2015;48.670;9.060;2022-09-21T13:02:50;15.70;99.90
4002;DHT22;2015;48.670;9.060;2022-09-21T13:05:37;15.60;99.90
4002;DHT22;2015;48.670;9.060;2022-09-21T13:08:25;15.60;99.90
4002;DHT22;2015;48.670;9.060;2022-09-21T13:11:04;15.60;99.90
4002;DHT22;2015;48.670;9.060;2022-09-21T13:13:55;15.80;99.90
4002;DHT22;2015;48.670;9.060;2022-09-21T13:16:35;16.00;99.90
4002;DHT22;2015;48.670;9.060;2022-09-21T13:21:43;16.10;99.90
4002;DHT22;2015;48.670;9.060;2022-09-21T13:24:27;16.20;99.90
4002;DHT22;2015;48.670;9.060;2022-09-21T13:26:59;16.30;99.90
4002;DHT22;2015;48.670;9.060;2022-09-21T13:29:36;16.50;99.90
4002;DHT22;2015;48.670;9.060;2022-09-21T13:34:43;16.30;99.90
4002;DHT22;2015;48.670;9.060;2022-09-21T13:47:52;15.20;99.90
4002;DHT22;2015;48.670;9.060;2022-09-21T13:53:07;15.40;99.90
4002;DHT22;2015;48.670;9.060;2022-09-21T13:55:53;15.60;99.90
4002;DHT22;2015;48.670;9.060;2022-09-21T13:58:35;15.60;99.90
4002;DHT22;2015;48.670;9.060;2022-09-21T14:01:24;15.60;99.90
4002;DHT22;2015;48.670;9.060;2022-09-21T14:04:24;15.60;99.90
4002;DHT22;2015;48.670;9.060;2022-09-21T14:07:01;15.30;99.90
4002;DHT22;2015;48.670;9.060;2022-09-21T14:09:40;15.40;99.90
4002;DHT22;2015;48.670;9.060;2022-09-21T14:12:19;15.30;99.90
4002;DHT22;2015;48.670;9.060;2022-09-21T14:15:28;15.50;99.90
4002;DHT22;2015;48.670;9.060;2022-09-21T14:18:52;15.50;99.90
4002;DHT22;2015;48.670;9.060;2022-09-21T14:23:39;15.30;99.90
4002;DHT22;2015;48.670;9.060;2022-09-21T14:26:35;15.40;99.90
4002;DHT22;2015;48.670;9.060;2022-09-21T14:31:58;15.20;99.90
4002;DHT22;2015;48.670;9.060;2022-09-21T14:34:34;15.20;99.90
4002;DHT22;2015;48.670;9.060;2022-09-21T14:39:50;15.30;99.90
4002;DHT22;2015;48.670;9.060;2022-09-21T14:42:25;15.40;99.90
4002;DHT22;2015;48.670;9.060;2022-09-21T14:44:59;15.40;99.90
4002;DHT22;2015;48.670;9.060;2022-09-21T14:47:42;15.50;99.90
4002;DHT22;2015;48.670;9.060;2022-09-21T14:53:06;15.40;99.90
4002;DHT22;2015;48.670;9.060;2022-09-21T14:56:05;15.50;99.90
4002;DHT22;2015;48.670;9.060;2022-09-21T14:59:40;15.30;99.90
4002;DHT22;2015;48.670;9.060;2022-09-21T15:02:02;15.30;99.90
4002;DHT22;2015;48.670;9.060;2022-09-21T15:04:50;15.20;99.90
4002;DHT22;2015;48.670;9.060;2022-09-21T15:14:06;15.20;99.90
4002;DHT22;2015;48.670;9.060;2022-09-21T15:16:48;15.00;99.90
4002;DHT22;2015;48.670;9.060;2022-09-21T15:22:19;14.90;99.90
4002;DHT22;2015;48.670;9.060;2022-09-21T15:24:57;14.80;99.90
4002;DHT22;2015;48.670;9.060;2022-09-21T15:27:31;14.80;99.90
4002;DHT22;2015;48.670;9.060;2022-09-21T15:30:05;14.90;99.90
4002;DHT22;2015;48.670;9.060;2022-09-21T15:32:43;14.90;99.90
4002;DHT22;2015;48.670;9.060;2022-09-21T15:35:18;14.80;99.90
4002;DHT22;2015;48.670;9.060;2022-09-21T15:37:50;14.80;99.90
4002;DHT22;2015;48.670;9.060;2022-09-21T15:40:26;14.70;99.90
4002;DHT22;2015;48.670;9.060;2022-09-21T15:45:56;14.60;99.90
4002;DHT22;2015;48.670;9.060;2022-09-21T15:48:32;14.50;99.90
4002;DHT22;2015;48.670;9.060;2022-09-21T15:51:07;14.40;99.90
4002;DHT22;2015;48.670;9.060;2022-09-21T15:53:44;14.30;99.90
4002;DHT22;2015;48.670;9.060;2022-09-21T15:56:27;14.20;99.90
4002;DHT22;2015;48.670;9.060;2022-09-21T15:59:01;14.10;99.90
4002;DHT22;2015;48.670;9.060;2022-09-21T16:01:42;14.10;99.90
4002;DHT22;2015;48.670;9.060;2022-09-21T16:04:18;14.00;99.90
4002;DHT22;2015;48.670;9.060;2022-09-21T16:07:04;13.90;99.90
4002;DHT22;2015;48.670;9.060;2022-09-21T16:09:40;13.80;99.90
4002;DHT22;2015;48.670;9.060;2022-09-21T16:12:33;13.80;99.90
4002;DHT22;2015;48.670;9.060;2022-09-21T16:15:25;13.70;99.90
4002;DHT22;2015;48.670;9.060;2022-09-21T16:18:01;13.70;99.90
4002;DHT22;2015;48.670;9.060;2022-09-21T16:20:46;13.80;99.90
4002;DHT22;2015;48.670;9.060;2022-09-21T16:23:21;13.90;99.90
4002;DHT22;2015;48.670;9.060;2022-09-21T16:25:58;13.80;99.90
4002;DHT22;2015;48.670;9.060;2022-09-21T16:28:38;13.70;99.90
4002;DHT22;2015;48.670;9.060;2022-09-21T16:31:31;13.60;99.90
4002;DHT22;2015;48.670;9.060;2022-09-21T16:34:29;13.50;99.90
4002;DHT22;2015;48.670;9.060;2022-09-21T16:37:24;13.40;99.90
4002;DHT22;2015;48.670;9.060;2022-09-21T16:39:58;13.30;99.90
4002;DHT22;2015;48.670;9.060;2022-09-21T16:42:30;13.20;99.90
4002;DHT22;2015;48.670;9.060;2022-09-21T16:45:11;13.10;99.90
4002;DHT22;2015;48.670;9.060;2022-09-21T16:47:47;13.00;99.90
4002;DHT22;2015;48.670;9.060;2022-09-21T16:50:19;12.80;99.90
4002;DHT22;2015;48.670;9.060;2022-09-21T16:52:50;12.70;99.90
4002;DHT22;2015;48.670;9.060;2022-09-21T16:55:22;12.50;99.90
4002;DHT22;2015;48.670;9.060;2022-09-21T16:58:00;12.50;99.90
4002;DHT22;2015;48.670;9.060;2022-09-21T17:00:37;12.40;99.90
4002;DHT22;2015;48.670;9.060;2022-09-21T17:03:09;12.30;99.90
4002;DHT22;2015;48.670;9.060;2022-09-21T17:05:41;12.20;99.90
4002;DHT22;2015;48.670;9.060;2022-09-21T17:08:14;12.20;99.90
4002;DHT22;2015;48.670;9.060;2022-09-21T17:10:46;12.10;99.90
4002;DHT22;2015;48.670;9.060;2022-09-21T17:13:19;12.00;99.90
4002;DHT22;2015;48.670;9.060;2022-09-21T17:15:51;11.90;99.90
4002;DHT22;2015;48.670;9.060;2022-09-21T17:18:23;11.80;99.90
4002;DHT22;2015;48.670;9.060;2022-09-21T17:20:55;11.70;99.90
4002;DHT22;2015;48.670;9.060;2022-09-21T17:23:27;11.50;99.90
4002;DHT22;2015;48.670;9.060;2022-09-21T17:25:59;11.40;99.90
4002;DHT22;2015;48.670;9.060;2022-09-21T17:28:31;11.30;99.90
4002;DHT22;2015;48.670;9.060;2022-09-21T17:31:03;11.20;99.90
4002;DHT22;2015;48.670;9.060;2022-09-21T17:33:37;11.10;99.90
4002;DHT22;2015;48.670;9.060;2022-09-21T17:36:13;11.00;99.90
4002;DHT22;2015;48.670;9.060;2022-09-21T17:38:45;11.00;99.90
4002;DHT22;2015;48.670;9.060;2022-09-21T17:41:36;10.90;99.90
4002;DHT22;2015;48.670;9.060;2022-09-21T17:44:16;10.80;99.90
4002;DHT22;2015;48.670;9.060;2022-09-21T17:47:14;10.70;99.90
4002;DHT22;2015;48.670;9.060;2022-09-21T17:49:49;10.60;99.90
4002;DHT22;2015;48.670;9.060;2022-09-21T17:52:22;10.50;99.90
4002;DHT22;2015;48.670;9.060;2022-09-21T17:55:13;10.50;99.90
4002;DHT22;2015;48.670;9.060;2022-09-21T17:58:07;10.40;99.90
4002;DHT22;2015;48.670;9.060;2022-09-21T18:00:45;10.30;99.90
4002;DHT22;2015;48.670;9.060;2022-09-21T18:03:25;10.20;99.90
4002;DHT22;2015;48.670;9.060;2022-09-21T18:05:58;10.10;99.90
4002;DHT22;2015;48.670;9.060;2022-09-21T18:08:32;10.10;99.90
4002;DHT22;2015;48.670;9.060;2022-09-21T18:14:07;10.00;99.90
4002;DHT22;2015;48.670;9.060;2022-09-21T18:25:32;9.70;99.90
4002;DHT22;2015;48.670;9.060;2022-09-21T18:28:11;9.70;99.90
4002;DHT22;2015;48.670;9.060;2022-09-21T18:30:51;9.60;99.90
4002;DHT22;2015;48.670;9.060;2022-09-21T18:33:40;9.60;99.90
4002;DHT22;2015;48.670;9.060;2022-09-21T18:39:19;9.40;99.90
4002;DHT22;2015;48.670;9.060;2022-09-21T18:42:17;9.30;99.90
4002;DHT22;2015;48.670;9.060;2022-09-21T18:45:01;9.30;99.90
4002;DHT22;2015;48.670;9.060;2022-09-21T18:48:25;9.30;99.90
4002;DHT22;2015;48.670;9.060;2022-09-21T18:53:51;9.20;99.90
4002;DHT22;2015;48.670;9.060;2022-09-21T18:56:27;9.10;99.90
4002;DHT22;2015;48.670;9.060;2022-09-21T18:58:59;9.10;99.90
4002;DHT22;2015;48.670;9.060;2022-09-21T19:01:31;9.00;99.90
4002;DHT22;2015;48.670;9.060;2022-09-21T19:04:05;9.00;99.90
4002;DHT22;2015;48.670;9.060;2022-09-21T19:06:59;9.00;99.90
4002;DHT22;2015;48.670;9.060;2022-09-21T19:15:27;8.80;99.90
4002;DHT22;2015;48.670;9.060;2022-09-21T19:24:30;8.70;99.90
4002;DHT22;2015;48.670;9.060;2022-09-21T19:27:25;8.60;99.90
4002;DHT22;2015;48.670;9.060;2022-09-21T19:30:05;8.60;99.90
4002;DHT22;2015;48.670;9.060;2022-09-21T19:32:48;8.60;99.90
4002;DHT22;2015;48.670;9.060;2022-09-21T19:37:54;8.50;99.90
4002;DHT22;2015;48.670;9.060;2022-09-21T19:40:33;8.50;99.90
4002;DHT22;2015;48.670;9.060;2022-09-21T19:48:41;8.40;99.90
4002;DHT22;2015;48.670;9.060;2022-09-21T19:53:56;8.30;99.90
4002;DHT22;2015;48.670;9.060;2022-09-21T19:56:48;8.30;99.90
4002;DHT22;2015;48.670;9.060;2022-09-21T19:59:39;8.30;99.90
4002;DHT22;2015;48.670;9.060;2022-09-21T20:02:28;8.20;99.90
4002;DHT22;2015;48.670;9.060;2022-09-21T20:05:14;8.20;99.90
4002;DHT22;2015;48.670;9.060;2022-09-21T20:16:31;8.10;99.90
4002;DHT22;2015;48.670;9.060;2022-09-21T20:22:15;8.10;99.90
4002;DHT22;2015;48.670;9.060;2022-09-21T20:27:25;8.00;99.90
4002;DHT22;2015;48.670;9.060;2022-09-21T20:29:59;8.00;99.90
4002;DHT22;2015;48.670;9.060;2022-09-21T20:32:31;8.00;99.90
4002;DHT22;2015;48.670;9.060;2022-09-21T20:35:18;7.90;99.90
4002;DHT22;2015;48.670;9.060;2022-09-21T20:37:50;7.90;99.90